createdAt,value
2022-08-18T00:01:42.453Z,22.18
2022-08-18T00:04:21.761Z,22.15
2022-08-18T00:06:59.788Z,22.08
2022-08-18T00:09:32.011Z,22.08
2022-08-18T00:12:03.155Z,22.11
2022-08-18T00:14:30.875Z,22.10
2022-08-18T00:16:58.782Z,22.16
2022-08-18T00:19:46.827Z,22.12
2022-08-18T00:22:18.743Z,22.02
2022-08-18T00:24:49.661Z,21.92
2022-08-18T00:27:21.593Z,21.85
2022-08-18T00:29:50.457Z,21.80
2022-08-18T00:32:26.705Z,21.84
2022-08-18T00:34:54.822Z,21.81
2022-08-18T00:37:23.798Z,21.78
2022-08-18T00:39:53.076Z,21.75
2022-08-18T00:42:30.537Z,21.76
2022-08-18T00:45:02.459Z,21.75
2022-08-18T00:47:41.301Z,21.78
2022-08-18T00:50:19.460Z,21.87
2022-08-18T00:52:58.924Z,21.84
2022-08-18T00:55:27.842Z,21.83
2022-08-18T00:58:03.017Z,21.80
2022-08-18T01:00:30.649Z,21.83
2022-08-18T01:03:03.842Z,21.80
2022-08-18T01:05:41.156Z,21.72
2022-08-18T01:08:12.103Z,21.58
2022-08-18T01:10:41.319Z,21.49
2022-08-18T01:13:09.276Z,21.43
2022-08-18T01:15:37.921Z,21.40
2022-08-18T01:18:29.031Z,21.45
2022-08-18T01:21:40.090Z,21.46
2022-08-18T01:24:12.902Z,21.38
2022-08-18T01:26:50.101Z,21.29
2022-08-18T01:29:19.706Z,21.25
2022-08-18T01:31:57.315Z,21.18
2022-08-18T01:34:28.360Z,21.08
2022-08-18T01:36:56.686Z,21.08
2022-08-18T01:41:27.239Z,21.25
2022-08-18T01:42:14.864Z,21.16
2022-08-18T01:44:42.054Z,20.79
2022-08-18T01:47:12.701Z,21.03
2022-08-18T01:49:43.037Z,20.91
2022-08-18T01:52:21.675Z,20.86
2022-08-18T01:54:50.615Z,21.04
2022-08-18T01:57:20.363Z,21.03
2022-08-18T01:59:47.581Z,20.82
2022-08-18T02:02:27.606Z,20.95
2022-08-18T02:05:02.669Z,20.98
2022-08-18T02:07:35.971Z,20.97
2022-08-18T02:10:07.199Z,20.97
2022-08-18T02:12:41.536Z,20.98
2022-08-18T02:15:10.240Z,20.96
2022-08-18T02:17:43.884Z,20.84
2022-08-18T02:20:15.750Z,21.07
2022-08-18T02:22:44.561Z,20.96
2022-08-18T02:25:13.730Z,20.89
2022-08-18T02:27:40.857Z,20.70
2022-08-18T02:30:13.376Z,20.85
2022-08-18T02:32:41.856Z,20.85
2022-08-18T02:35:11.741Z,20.56
2022-08-18T02:37:42.057Z,20.45
2022-08-18T02:40:14.804Z,20.69
2022-08-18T02:42:43.733Z,20.74
2022-08-18T02:45:12.939Z,20.75
2022-08-18T02:47:40.335Z,20.72
2022-08-18T02:50:11.177Z,20.68
2022-08-18T02:52:40.379Z,20.72
2022-08-18T02:55:08.988Z,20.63
2022-08-18T02:57:36.477Z,20.40
2022-08-18T03:00:04.893Z,20.69
2022-08-18T03:02:32.407Z,20.58
2022-08-18T03:04:59.629Z,20.52
2022-08-18T03:07:26.695Z,20.57
2022-08-18T03:09:53.741Z,20.53
2022-08-18T03:12:20.813Z,20.38
2022-08-18T03:14:47.872Z,20.18
2022-08-18T03:17:15.095Z,20.37
2022-08-18T03:19:45.000Z,20.30
2022-08-18T03:22:27.685Z,20.54
2022-08-18T03:24:57.227Z,20.38
2022-08-18T03:27:24.843Z,20.49
2022-08-18T03:29:52.233Z,20.43
2022-08-18T03:32:19.242Z,20.50
2022-08-18T03:34:46.258Z,20.54
2022-08-18T03:37:16.111Z,20.37
2022-08-18T03:39:43.358Z,20.36
2022-08-18T03:42:10.559Z,20.65
2022-08-18T03:44:37.557Z,20.64
2022-08-18T03:47:10.197Z,20.30
2022-08-18T03:49:37.803Z,20.36
2022-08-18T03:52:10.328Z,20.73
2022-08-18T03:54:38.881Z,20.43
2022-08-18T03:57:09.897Z,20.60
2022-08-18T03:59:38.143Z,20.46
2022-08-18T04:02:05.621Z,20.61
2022-08-18T04:04:32.971Z,20.55
2022-08-18T04:07:10.024Z,20.67
2022-08-18T04:09:38.985Z,20.67
2022-08-18T04:12:16.576Z,20.55
2022-08-18T04:14:49.199Z,20.53
2022-08-18T04:17:29.081Z,20.58
2022-08-18T04:19:56.952Z,20.57
2022-08-18T04:22:26.413Z,20.58
2022-08-18T04:24:54.471Z,19.95
2022-08-18T04:27:22.749Z,20.56
2022-08-18T04:29:50.433Z,20.51
2022-08-18T04:32:19.460Z,20.41
2022-08-18T04:34:46.694Z,20.41
2022-08-18T04:37:15.491Z,20.24
2022-08-18T04:39:44.101Z,20.23
2022-08-18T04:42:11.618Z,19.90
2022-08-18T04:44:38.868Z,20.39
2022-08-18T04:47:13.298Z,20.48
2022-08-18T04:49:40.592Z,20.54
2022-08-18T04:52:40.867Z,20.61
2022-08-18T04:55:10.589Z,20.61
2022-08-18T04:57:38.421Z,20.59
2022-08-18T05:00:08.502Z,20.62
2022-08-18T05:02:35.911Z,20.64
2022-08-18T05:05:04.397Z,20.70
2022-08-18T05:07:32.129Z,20.77
2022-08-18T05:09:59.643Z,20.80
2022-08-18T05:12:27.054Z,20.86
2022-08-18T05:14:57.322Z,21.02
2022-08-18T05:17:29.137Z,21.05
2022-08-18T05:20:01.749Z,21.09
2022-08-18T05:22:31.330Z,21.05
2022-08-18T05:25:00.419Z,21.03
2022-08-18T05:27:36.363Z,21.08
2022-08-18T05:30:07.431Z,21.08
2022-08-18T05:32:49.635Z,21.07
2022-08-18T05:35:30.818Z,21.09
2022-08-18T05:38:13.870Z,21.09
2022-08-18T05:40:43.073Z,21.02
2022-08-18T05:43:11.218Z,21.04
2022-08-18T05:45:41.775Z,21.17
2022-08-18T05:48:09.044Z,21.21
2022-08-18T05:50:37.991Z,21.24
2022-08-18T05:53:17.097Z,21.20
2022-08-18T05:56:23.236Z,21.42
2022-08-18T05:58:55.707Z,21.58
2022-08-18T06:01:41.547Z,21.66
2022-08-18T06:04:23.627Z,21.82
2022-08-18T06:06:52.779Z,22.02
2022-08-18T06:09:51.179Z,21.98
2022-08-18T06:12:40.123Z,22.03
2022-08-18T06:15:27.618Z,22.01
2022-08-18T06:18:26.547Z,22.35
2022-08-18T06:21:19.843Z,22.45
2022-08-18T06:24:34.933Z,22.58
2022-08-18T06:27:14.569Z,22.73
2022-08-18T06:30:07.528Z,23.00
2022-08-18T06:33:29.681Z,23.47
2022-08-18T06:36:32.419Z,23.87
2022-08-18T06:39:23.512Z,24.16
2022-08-18T06:41:53.632Z,24.25
2022-08-18T06:44:45.676Z,24.31
2022-08-18T06:47:16.116Z,24.40
2022-08-18T06:50:21.958Z,24.44
2022-08-18T06:53:02.170Z,24.44
2022-08-18T06:55:40.296Z,24.57
2022-08-18T06:58:27.822Z,24.65
2022-08-18T07:01:04.790Z,24.80
2022-08-18T07:04:04.333Z,24.41
2022-08-18T07:06:32.167Z,24.99
2022-08-18T07:09:21.095Z,25.06
2022-08-18T07:12:10.976Z,24.93
2022-08-18T07:15:05.735Z,25.10
2022-08-18T07:17:42.390Z,25.16
2022-08-18T07:20:24.372Z,25.32
2022-08-18T07:23:00.229Z,25.59
2022-08-18T07:25:44.168Z,25.85
2022-08-18T07:28:34.042Z,25.83
2022-08-18T07:31:19.432Z,26.18
2022-08-18T07:34:38.390Z,26.37
2022-08-18T07:37:29.076Z,26.41
2022-08-18T07:40:14.157Z,26.63
2022-08-18T07:43:06.300Z,26.77
2022-08-18T07:45:42.526Z,26.89
2022-08-18T07:48:37.542Z,26.92
2022-08-18T07:51:20.129Z,26.88
2022-08-18T07:54:50.456Z,26.27
2022-08-18T07:57:42.042Z,26.46
2022-08-18T08:00:41.487Z,26.71
2022-08-18T08:03:16.912Z,26.83
2022-08-18T08:06:00.146Z,26.97
2022-08-18T08:08:39.836Z,26.98
2022-08-18T08:11:13.001Z,26.98
2022-08-18T08:14:07.127Z,27.02
2022-08-18T08:16:48.843Z,26.95
2022-08-18T08:19:58.746Z,27.07
2022-08-18T08:22:40.829Z,27.08
2022-08-18T08:25:46.168Z,27.26
2022-08-18T08:28:35.831Z,27.34
2022-08-18T08:31:37.165Z,27.34
2022-08-18T08:34:37.935Z,27.71
2022-08-18T08:37:14.875Z,27.54
2022-08-18T08:39:59.412Z,27.82
2022-08-18T08:42:45.398Z,29.00
2022-08-18T08:45:23.507Z,30.49
2022-08-18T08:48:20.458Z,31.82
2022-08-18T08:51:23.073Z,32.91
2022-08-18T08:54:24.938Z,33.84
2022-08-18T08:56:56.298Z,34.33
2022-08-18T08:59:25.721Z,34.50
2022-08-18T09:02:27.124Z,33.80
2022-08-18T09:05:49.311Z,32.67
2022-08-18T09:08:48.580Z,32.42
2022-08-18T09:11:45.043Z,32.63
2022-08-18T09:14:33.854Z,33.15
2022-08-18T09:17:38.816Z,33.29
2022-08-18T09:20:37.637Z,33.82
2022-08-18T09:23:10.473Z,34.78
2022-08-18T09:25:43.835Z,34.52
2022-08-18T09:28:19.252Z,34.58
2022-08-18T09:30:49.206Z,34.45
2022-08-18T09:33:22.969Z,33.86
2022-08-18T09:36:13.520Z,33.08
2022-08-18T09:39:18.524Z,33.05
2022-08-18T09:42:07.144Z,32.88
2022-08-18T09:44:47.394Z,32.75
2022-08-18T09:47:21.798Z,32.55
2022-08-18T09:49:57.841Z,32.35
2022-08-18T09:52:48.789Z,31.95
2022-08-18T09:55:19.775Z,31.69
2022-08-18T09:57:47.937Z,31.22
2022-08-18T10:00:28.360Z,31.28
2022-08-18T10:02:56.162Z,31.18
2022-08-18T10:05:31.179Z,30.97
2022-08-18T10:08:05.454Z,30.93
2022-08-18T10:11:01.326Z,30.74
2022-08-18T10:14:06.663Z,30.72
2022-08-18T10:17:15.955Z,30.65
2022-08-18T10:19:48.558Z,30.54
2022-08-18T10:22:43.200Z,30.57
2022-08-18T10:25:22.727Z,30.33
2022-08-18T10:27:55.609Z,30.19
2022-08-18T10:30:30.497Z,30.19
2022-08-18T10:33:17.601Z,30.15
2022-08-18T10:36:03.193Z,30.03
2022-08-18T10:38:49.138Z,30.09
2022-08-18T10:41:26.149Z,30.10
2022-08-18T10:43:57.397Z,30.02
2022-08-18T10:46:46.795Z,29.94
2022-08-18T10:49:14.257Z,29.83
2022-08-18T10:52:03.083Z,29.81
2022-08-18T10:55:22.236Z,29.90
2022-08-18T10:58:04.350Z,29.81
2022-08-18T11:00:50.517Z,29.85
2022-08-18T11:03:56.002Z,29.83
2022-08-18T11:06:25.808Z,30.00
2022-08-18T11:09:00.673Z,30.53
2022-08-18T11:11:53.158Z,31.21
2022-08-18T11:14:30.103Z,30.95
2022-08-18T11:17:19.484Z,30.83
2022-08-18T11:19:50.914Z,30.75
2022-08-18T11:22:32.285Z,30.73
2022-08-18T11:25:03.333Z,30.61
2022-08-18T11:27:35.860Z,30.64
2022-08-18T11:30:06.115Z,30.46
2022-08-18T11:32:42.510Z,30.39
2022-08-18T11:35:36.289Z,30.31
2022-08-18T11:38:12.347Z,29.85
2022-08-18T11:43:40.855Z,29.55
2022-08-18T11:46:38.920Z,29.49
2022-08-18T11:49:44.087Z,29.43
2022-08-18T11:58:12.675Z,29.03
2022-08-18T12:00:46.553Z,28.96
2022-08-18T12:03:31.866Z,28.74
2022-08-18T12:06:19.446Z,28.70
2022-08-18T12:08:57.134Z,28.70
2022-08-18T12:11:32.951Z,28.72
2022-08-18T12:14:31.799Z,28.70
2022-08-18T12:16:57.803Z,28.79
2022-08-18T12:19:30.597Z,28.97
2022-08-18T12:22:00.841Z,28.98
2022-08-18T12:24:36.437Z,29.03
2022-08-18T12:27:20.429Z,29.05
2022-08-18T12:29:50.854Z,28.89
2022-08-18T12:32:47.144Z,28.61
2022-08-18T12:35:11.552Z,28.56
2022-08-18T12:38:00.058Z,28.72
2022-08-18T12:40:29.924Z,28.87
2022-08-18T12:42:57.758Z,29.05
2022-08-18T12:45:27.267Z,29.01
2022-08-18T12:47:54.997Z,29.00
2022-08-18T12:50:30.794Z,29.10
2022-08-18T12:53:00.336Z,29.04
2022-08-18T12:55:31.555Z,28.97
2022-08-18T12:57:59.682Z,28.62
2022-08-18T13:00:28.971Z,28.45
2022-08-18T13:02:57.590Z,28.52
2022-08-18T13:05:26.655Z,28.54
2022-08-18T13:08:04.227Z,28.55
2022-08-18T13:10:45.194Z,28.60
2022-08-18T13:13:15.259Z,28.55
2022-08-18T13:15:44.261Z,28.62
2022-08-18T13:18:28.968Z,28.65
2022-08-18T13:20:58.802Z,28.61
2022-08-18T13:23:30.552Z,28.67
2022-08-18T13:26:02.038Z,28.71
2022-08-18T13:28:36.158Z,28.79
2022-08-18T13:31:23.339Z,28.94
2022-08-18T13:33:58.009Z,29.14
2022-08-18T13:36:45.999Z,29.40
2022-08-18T13:39:24.276Z,29.55
2022-08-18T13:41:53.767Z,29.60
2022-08-18T13:44:22.728Z,29.70
2022-08-18T13:46:56.113Z,29.82
2022-08-18T13:49:30.104Z,29.90
2022-08-18T13:52:00.341Z,29.83
2022-08-18T13:54:35.155Z,29.90
2022-08-18T13:57:05.058Z,30.08
2022-08-18T13:59:34.506Z,30.19
2022-08-18T14:02:05.805Z,30.25
2022-08-18T14:04:36.317Z,30.32
2022-08-18T14:07:09.621Z,30.14
2022-08-18T14:09:38.507Z,30.28
2022-08-18T14:12:23.925Z,30.39
2022-08-18T14:14:55.718Z,30.48
2022-08-18T14:17:27.200Z,30.39
2022-08-18T14:20:15.262Z,30.26
2022-08-18T14:23:12.352Z,29.95
2022-08-18T14:25:59.968Z,29.63
2022-08-18T14:28:31.965Z,29.41
2022-08-18T14:31:03.089Z,29.36
2022-08-18T14:33:51.114Z,29.48
2022-08-18T14:36:20.388Z,29.41
2022-08-18T14:38:58.891Z,29.32
2022-08-18T14:41:27.305Z,29.37
2022-08-18T14:44:13.000Z,29.47
2022-08-18T14:46:52.378Z,29.31
2022-08-18T14:49:28.390Z,29.42
2022-08-18T14:52:00.320Z,29.53
2022-08-18T14:54:30.051Z,29.62
2022-08-18T14:57:01.723Z,29.62
2022-08-18T14:59:34.615Z,29.61
2022-08-18T15:02:11.242Z,29.42
2022-08-18T15:04:55.915Z,29.14
2022-08-18T15:07:24.468Z,29.21
2022-08-18T15:09:51.857Z,29.10
2022-08-18T15:12:39.682Z,29.14
2022-08-18T15:15:12.271Z,28.99
2022-08-18T15:17:49.557Z,28.97
2022-08-18T15:20:28.591Z,28.90
2022-08-18T15:23:24.845Z,29.02
2022-08-18T15:25:56.552Z,28.95
2022-08-18T15:28:27.984Z,28.86
2022-08-18T15:33:42.908Z,28.87
2022-08-18T15:36:10.686Z,28.64
2022-08-18T15:38:43.837Z,28.61
2022-08-18T15:41:26.877Z,28.68
2022-08-18T15:43:55.469Z,28.82
2022-08-18T15:46:24.407Z,28.89
2022-08-18T15:48:54.825Z,28.92
2022-08-18T15:51:22.597Z,28.68
2022-08-18T15:53:50.878Z,28.56
2022-08-18T15:56:22.751Z,28.66
2022-08-18T15:58:53.841Z,28.45
2022-08-18T16:01:32.204Z,28.40
2022-08-18T16:04:02.421Z,28.39
2022-08-18T16:06:32.729Z,28.35
2022-08-18T16:09:01.824Z,28.39
2022-08-18T16:11:30.446Z,28.29
2022-08-18T16:13:59.196Z,28.34
2022-08-18T16:16:35.611Z,28.42
2022-08-18T16:19:05.909Z,28.29
2022-08-18T16:21:34.018Z,28.22
2022-08-18T16:24:01.563Z,28.21
2022-08-18T16:26:29.013Z,28.23
2022-08-18T16:29:00.186Z,28.26
2022-08-18T16:31:29.565Z,28.18
2022-08-18T16:33:57.934Z,28.04
2022-08-18T16:36:26.394Z,27.91
2022-08-18T16:38:56.134Z,27.86
2022-08-18T16:41:26.674Z,27.86
2022-08-18T16:43:54.479Z,27.83
2022-08-18T16:46:26.449Z,27.79
2022-08-18T16:48:58.317Z,27.80
2022-08-18T16:51:27.973Z,27.71
2022-08-18T16:53:55.520Z,27.68
2022-08-18T16:56:26.518Z,27.63
2022-08-18T16:59:13.109Z,27.59
2022-08-18T17:01:59.534Z,27.51
2022-08-18T17:04:33.405Z,27.35
2022-08-18T17:07:03.230Z,27.06
2022-08-18T17:09:31.186Z,27.33
2022-08-18T17:11:59.184Z,27.34
2022-08-18T17:14:30.067Z,27.29
2022-08-18T17:16:58.437Z,27.25
2022-08-18T17:19:31.188Z,27.18
2022-08-18T17:21:59.087Z,27.18
2022-08-18T17:24:31.288Z,27.04
2022-08-18T17:27:16.610Z,26.55
2022-08-18T17:30:07.159Z,27.17
2022-08-18T17:32:46.681Z,27.14
2022-08-18T17:35:26.958Z,27.09
2022-08-18T17:38:22.131Z,27.04
2022-08-18T17:40:54.410Z,26.99
2022-08-18T17:43:24.896Z,26.97
2022-08-18T17:46:10.274Z,26.96
2022-08-18T17:48:44.402Z,26.97
2022-08-18T17:51:34.381Z,26.88
2022-08-18T17:54:27.580Z,26.83
2022-08-18T17:57:01.591Z,26.81
2022-08-18T17:59:51.775Z,26.77
2022-08-18T18:02:29.242Z,26.79
2022-08-18T18:05:06.650Z,26.76
2022-08-18T18:07:53.583Z,26.73
2022-08-18T18:10:51.002Z,26.72
2022-08-18T18:13:32.919Z,26.72
2022-08-18T18:16:20.565Z,26.72
2022-08-18T18:18:59.780Z,26.68
2022-08-18T18:21:58.947Z,26.66
2022-08-18T18:24:17.715Z,26.62
2022-08-18T18:26:52.277Z,26.55
2022-08-18T18:29:33.415Z,26.50
2022-08-18T18:32:39.873Z,26.41
2022-08-18T18:35:16.376Z,26.36
2022-08-18T18:37:57.506Z,26.28
2022-08-18T18:40:50.427Z,26.31
2022-08-18T18:43:25.424Z,26.20
2022-08-18T18:46:25.202Z,26.12
2022-08-18T18:49:10.602Z,26.04
2022-08-18T18:52:06.206Z,25.96
2022-08-18T18:55:14.755Z,25.93
2022-08-18T18:58:07.153Z,25.95
2022-08-18T19:00:55.930Z,25.95
2022-08-18T19:03:48.891Z,25.90
2022-08-18T19:06:34.560Z,25.83
2022-08-18T19:09:16.920Z,25.78
2022-08-18T19:12:05.282Z,25.72
2022-08-18T19:14:59.862Z,25.65
2022-08-18T19:17:51.345Z,25.67
2022-08-18T19:20:27.294Z,25.64
2022-08-18T19:23:06.435Z,25.59
2022-08-18T19:25:41.223Z,25.54
2022-08-18T19:28:30.217Z,25.53
2022-08-18T19:31:02.653Z,25.52
2022-08-18T19:33:44.982Z,25.49
2022-08-18T19:36:39.576Z,25.44
2022-08-18T19:39:46.869Z,25.40
2022-08-18T19:42:22.500Z,25.34
2022-08-18T19:45:16.514Z,25.37
2022-08-18T19:47:52.863Z,25.30
2022-08-18T19:50:32.620Z,25.29
2022-08-18T19:53:15.086Z,25.16
2022-08-18T19:55:54.050Z,25.07
2022-08-18T19:58:35.131Z,25.07
2022-08-18T20:01:21.002Z,25.00
2022-08-18T20:04:01.217Z,25.01
2022-08-18T20:07:01.415Z,24.97
2022-08-18T20:10:02.022Z,24.88
2022-08-18T20:13:10.833Z,24.72
2022-08-18T20:16:05.034Z,24.66
2022-08-18T20:18:48.975Z,24.64
2022-08-18T20:21:22.460Z,24.56
2022-08-18T20:24:05.905Z,24.54
2022-08-18T20:26:39.097Z,24.48
2022-08-18T20:29:11.993Z,24.39
2022-08-18T20:31:45.536Z,24.33
2022-08-18T20:34:15.226Z,24.21
2022-08-18T20:36:45.166Z,24.18
2022-08-18T20:39:33.935Z,24.17
2022-08-18T20:42:02.794Z,24.14
2022-08-18T20:45:03.920Z,24.10
2022-08-18T20:47:49.012Z,24.09
2022-08-18T20:50:59.267Z,24.08
2022-08-18T20:53:57.368Z,24.04
2022-08-18T20:56:43.823Z,23.97
2022-08-18T20:59:22.217Z,23.90
2022-08-18T21:02:07.403Z,23.89
2022-08-18T21:04:47.701Z,23.90
2022-08-18T21:07:37.155Z,23.82
2022-08-18T21:10:22.910Z,23.81
2022-08-18T21:12:53.788Z,23.78
2022-08-18T21:15:28.300Z,23.79
2022-08-18T21:18:00.743Z,23.74
2022-08-18T21:20:29.425Z,23.76
2022-08-18T21:23:09.327Z,23.68
2022-08-18T21:25:40.818Z,23.65
2022-08-18T21:28:08.307Z,23.64
2022-08-18T21:30:35.897Z,23.60
2022-08-18T21:33:20.056Z,23.58
2022-08-18T21:35:47.986Z,23.44
2022-08-18T21:38:24.289Z,23.44
2022-08-18T21:40:57.157Z,23.39
2022-08-18T21:44:01.294Z,23.43
2022-08-18T21:46:30.566Z,23.39
2022-08-18T21:49:00.517Z,23.42
2022-08-18T21:51:31.431Z,23.42
2022-08-18T21:54:00.463Z,23.38
2022-08-18T21:56:31.812Z,23.41
2022-08-18T21:59:14.359Z,23.34
2022-08-18T22:01:51.912Z,23.02
2022-08-18T22:04:26.885Z,23.32
2022-08-18T22:07:00.617Z,23.30
2022-08-18T22:09:50.475Z,23.21
2022-08-18T22:12:55.387Z,23.15
2022-08-18T22:15:41.785Z,22.99
2022-08-18T22:18:18.289Z,23.06
2022-08-18T22:20:56.219Z,22.83
2022-08-18T22:23:58.679Z,22.70
2022-08-18T22:26:36.959Z,22.78
2022-08-18T22:29:07.359Z,22.74
2022-08-18T22:31:50.760Z,22.73
2022-08-18T22:34:27.751Z,22.75
2022-08-18T22:37:16.934Z,22.76
2022-08-18T22:39:53.731Z,22.71
2022-08-18T22:42:24.476Z,22.63
2022-08-18T22:44:52.733Z,22.31
2022-08-18T22:47:21.158Z,22.55
2022-08-18T22:49:48.606Z,22.63
2022-08-18T22:52:33.003Z,22.52
2022-08-18T22:55:07.913Z,22.42
2022-08-18T22:57:37.638Z,22.17
2022-08-18T23:00:14.617Z,22.60
2022-08-18T23:02:42.622Z,22.55
2022-08-18T23:05:10.990Z,22.55
2022-08-18T23:07:38.125Z,22.26
2022-08-18T23:10:13.944Z,22.39
2022-08-18T23:12:43.527Z,22.41
2022-08-18T23:15:11.746Z,22.19
2022-08-18T23:17:41.527Z,22.25
2022-08-18T23:20:18.002Z,22.14
2022-08-18T23:22:46.265Z,22.47
2022-08-18T23:25:14.314Z,22.32
2022-08-18T23:27:42.876Z,22.30
2022-08-18T23:30:10.864Z,22.36
2022-08-18T23:32:37.981Z,22.16
2022-08-18T23:35:05.789Z,22.15
2022-08-18T23:37:33.006Z,22.11
2022-08-18T23:40:00.218Z,22.40
2022-08-18T23:42:27.455Z,22.21
2022-08-18T23:44:58.904Z,22.35
2022-08-18T23:47:26.246Z,22.34
2022-08-18T23:49:54.363Z,22.27
2022-08-18T23:52:21.670Z,22.37
2022-08-18T23:54:48.808Z,22.40
2022-08-18T23:57:15.983Z,22.14
2022-08-18T23:59:43.031Z,22.24
